createdAt,value
2022-08-01T00:00:40.773Z,0
2022-08-01T00:01:49.949Z,0
2022-08-01T00:02:59.129Z,0
2022-08-01T00:04:08.289Z,0
2022-08-01T00:05:16.476Z,0
2022-08-01T00:06:25.644Z,0
2022-08-01T00:07:34.831Z,0
2022-08-01T00:08:43.991Z,0
2022-08-01T00:09:53.170Z,0
2022-08-01T00:11:02.345Z,0
2022-08-01T00:12:11.511Z,0
2022-08-01T00:13:20.679Z,0
2022-08-01T00:14:29.858Z,0
2022-08-01T00:15:39.021Z,0
2022-08-01T00:16:48.203Z,0
2022-08-01T00:17:57.367Z,0
2022-08-01T00:19:06.552Z,0
2022-08-01T00:20:14.736Z,0
2022-08-01T00:21:23.906Z,0
2022-08-01T00:22:33.074Z,0
2022-08-01T00:23:42.244Z,0
2022-08-01T00:24:51.422Z,0
2022-08-01T00:26:00.582Z,0
2022-08-01T00:27:09.768Z,0
2022-08-01T00:28:18.931Z,0
2022-08-01T00:29:28.096Z,0
2022-08-01T00:31:46.451Z,0
2022-08-01T00:32:55.616Z,0
2022-08-01T00:34:04.796Z,0
2022-08-01T00:35:12.989Z,0
2022-08-01T00:36:22.169Z,0
2022-08-01T00:37:31.320Z,0
2022-08-01T00:38:40.502Z,0
2022-08-01T00:39:49.682Z,0
2022-08-01T00:40:58.842Z,0
2022-08-01T00:42:08.008Z,0
2022-08-01T00:43:17.195Z,0
2022-08-01T00:44:26.359Z,0
2022-08-01T00:45:35.529Z,0
2022-08-01T00:46:44.715Z,0
2022-08-01T00:47:53.882Z,0
2022-08-01T00:49:03.058Z,0
2022-08-01T00:50:11.238Z,0
2022-08-01T00:51:20.410Z,0
2022-08-01T00:52:29.579Z,0
2022-08-01T00:53:38.745Z,0
2022-08-01T00:54:47.925Z,0
2022-08-01T00:55:57.106Z,0
2022-08-01T00:57:06.287Z,0
2022-08-01T00:58:15.443Z,0
2022-08-01T00:59:24.639Z,0
2022-08-01T01:00:33.797Z,0
2022-08-01T01:01:42.965Z,0
2022-08-01T01:02:52.148Z,0
2022-08-01T01:04:01.304Z,0
2022-08-01T01:05:09.492Z,0
2022-08-01T01:06:18.662Z,0
2022-08-01T01:07:27.840Z,0
2022-08-01T01:08:37.014Z,0
2022-08-01T01:09:46.176Z,0
2022-08-01T01:10:55.345Z,0
2022-08-01T01:12:04.526Z,0
2022-08-01T01:13:13.701Z,0
2022-08-01T01:14:22.870Z,0
2022-08-01T01:15:32.049Z,0
2022-08-01T01:16:41.211Z,0
2022-08-01T01:17:50.381Z,0
2022-08-01T01:18:59.557Z,0
2022-08-01T01:20:07.744Z,0
2022-08-01T01:21:16.920Z,0
2022-08-01T01:22:26.090Z,0
2022-08-01T01:23:35.259Z,0
2022-08-01T01:24:44.445Z,0
2022-08-01T01:25:53.605Z,0
2022-08-01T01:27:02.777Z,0
2022-08-01T01:28:11.956Z,0
2022-08-01T01:29:21.120Z,0
2022-08-01T01:30:30.302Z,0
2022-08-01T01:31:39.467Z,0
2022-08-01T01:32:48.644Z,0
2022-08-01T01:33:57.818Z,0
2022-08-01T01:35:06.006Z,0
2022-08-01T01:36:15.174Z,0
2022-08-01T01:37:24.341Z,0
2022-08-01T01:38:33.512Z,0
2022-08-01T01:39:42.683Z,0
2022-08-01T01:40:51.856Z,0
2022-08-01T01:42:01.027Z,0
2022-08-01T01:43:10.208Z,0
2022-08-01T01:44:19.380Z,0
2022-08-01T01:45:28.542Z,0
2022-08-01T01:47:46.898Z,0
2022-08-01T01:48:56.070Z,0
2022-08-01T01:50:04.253Z,0
2022-08-01T01:51:13.433Z,0
2022-08-01T01:52:22.598Z,0
2022-08-01T01:53:31.778Z,0
2022-08-01T01:54:40.947Z,0
2022-08-01T01:55:49.138Z,0
2022-08-01T01:56:58.336Z,0
2022-08-01T01:58:07.513Z,0
2022-08-01T01:59:16.665Z,0
2022-08-01T02:00:25.820Z,0
2022-08-01T02:01:34.991Z,0
2022-08-01T02:02:44.166Z,0
2022-08-01T02:03:53.349Z,0
2022-08-01T02:05:02.516Z,0
2022-08-01T02:06:11.694Z,0
2022-08-01T02:07:20.854Z,0
2022-08-01T02:08:30.026Z,0
2022-08-01T02:09:39.201Z,0
2022-08-01T02:10:47.391Z,0
2022-08-01T02:11:56.568Z,0
2022-08-01T02:13:05.731Z,0
2022-08-01T02:14:14.907Z,0
2022-08-01T02:15:24.080Z,0
2022-08-01T02:16:33.250Z,0
2022-08-01T02:17:42.429Z,0
2022-08-01T02:18:51.593Z,0
2022-08-01T02:20:00.763Z,0
2022-08-01T02:21:09.940Z,0
2022-08-01T02:22:19.107Z,0
2022-08-01T02:23:28.282Z,0
2022-08-01T02:24:37.455Z,0
2022-08-01T02:25:45.638Z,0
2022-08-01T02:26:54.813Z,0
2022-08-01T02:28:03.985Z,0
2022-08-01T02:29:13.167Z,0
2022-08-01T02:30:22.343Z,0
2022-08-01T02:31:31.505Z,0
2022-08-01T02:32:40.685Z,0
2022-08-01T02:33:49.855Z,0
2022-08-01T02:34:59.017Z,0
2022-08-01T02:36:08.190Z,0
2022-08-01T02:37:17.359Z,0
2022-08-01T02:38:26.542Z,0
2022-08-01T02:39:35.712Z,0
2022-08-01T02:40:43.889Z,0
2022-08-01T02:41:53.063Z,0
2022-08-01T02:43:02.250Z,0
2022-08-01T02:44:11.417Z,0
2022-08-01T02:45:20.583Z,0
2022-08-01T02:46:29.761Z,0
2022-08-01T02:47:38.921Z,0
2022-08-01T02:48:48.100Z,0
2022-08-01T02:49:57.264Z,0
2022-08-01T02:51:06.441Z,0
2022-08-01T02:52:15.618Z,0
2022-08-01T02:53:24.791Z,0
2022-08-01T02:54:33.948Z,0
2022-08-01T02:55:42.140Z,0
2022-08-01T02:56:51.322Z,0
2022-08-01T02:58:00.483Z,0
2022-08-01T02:59:09.665Z,0
2022-08-01T03:00:18.833Z,0
2022-08-01T03:01:28.022Z,0
2022-08-01T03:02:37.175Z,0
2022-08-01T03:03:46.359Z,0
2022-08-01T03:06:04.692Z,0
2022-08-01T03:07:13.872Z,0
2022-08-01T03:08:23.046Z,0
2022-08-01T03:09:32.212Z,0
2022-08-01T03:10:40.409Z,0
2022-08-01T03:11:49.565Z,0
2022-08-01T03:12:58.753Z,0
2022-08-01T03:14:07.920Z,0
2022-08-01T03:15:17.108Z,0
2022-08-01T03:16:26.260Z,0
2022-08-01T03:17:35.446Z,0
2022-08-01T03:18:44.614Z,0
2022-08-01T03:19:53.775Z,3
2022-08-01T03:21:02.949Z,3
2022-08-01T03:22:12.117Z,4
2022-08-01T03:23:21.295Z,0
2022-08-01T03:24:30.473Z,0
2022-08-01T03:25:38.648Z,4
2022-08-01T03:26:47.823Z,1
2022-08-01T03:27:57.008Z,1
2022-08-01T03:29:06.171Z,9
2022-08-01T03:30:15.345Z,5
2022-08-01T03:31:24.521Z,5
2022-08-01T03:32:33.686Z,5
2022-08-01T03:33:42.859Z,13
2022-08-01T03:34:52.049Z,5
2022-08-01T03:36:01.204Z,10
2022-08-01T03:37:10.374Z,4
2022-08-01T03:38:19.542Z,10
2022-08-01T03:39:28.724Z,32
2022-08-01T03:40:36.907Z,20
2022-08-01T03:41:46.084Z,28
2022-08-01T03:42:55.262Z,37
2022-08-01T03:44:04.426Z,41
2022-08-01T03:45:13.594Z,41
2022-08-01T03:46:22.772Z,32
2022-08-01T03:47:31.935Z,37
2022-08-01T03:48:41.118Z,21
2022-08-01T03:49:50.270Z,11
2022-08-01T03:50:59.463Z,44
2022-08-01T03:52:08.643Z,66
2022-08-01T03:53:17.806Z,104
2022-08-01T03:54:26.992Z,75
2022-08-01T03:55:35.168Z,67
2022-08-01T03:56:44.328Z,92
2022-08-01T03:57:53.508Z,110
2022-08-01T03:59:02.684Z,106
2022-08-01T04:00:11.851Z,98
2022-08-01T04:01:21.028Z,106
2022-08-01T04:02:30.195Z,115
2022-08-01T04:03:39.362Z,106
2022-08-01T04:04:48.539Z,116
2022-08-01T04:05:57.720Z,121
2022-08-01T04:07:06.885Z,139
2022-08-01T04:08:16.058Z,154
2022-08-01T04:09:25.233Z,179
2022-08-01T04:10:33.412Z,211
2022-08-01T04:11:42.590Z,255
2022-08-01T04:12:51.752Z,248
2022-08-01T04:14:00.928Z,244
2022-08-01T04:15:10.102Z,259
2022-08-01T04:16:19.279Z,283
2022-08-01T04:17:28.440Z,311
2022-08-01T04:18:37.615Z,359
2022-08-01T04:19:46.803Z,401
2022-08-01T04:20:55.970Z,379
2022-08-01T04:22:05.136Z,299
2022-08-01T04:23:14.298Z,347
2022-08-01T04:24:23.467Z,304
2022-08-01T04:25:32.654Z,356
2022-08-01T04:26:40.846Z,402
2022-08-01T04:27:50.008Z,450
2022-08-01T04:28:59.186Z,432
2022-08-01T04:30:08.362Z,466
2022-08-01T04:31:17.534Z,488
2022-08-01T04:32:26.702Z,556
2022-08-01T04:33:35.863Z,615
2022-08-01T04:34:45.032Z,649
2022-08-01T04:35:54.226Z,688
2022-08-01T04:37:03.390Z,716
2022-08-01T04:38:12.558Z,710
2022-08-01T04:39:21.736Z,725
2022-08-01T04:40:30.901Z,728
2022-08-01T04:41:39.083Z,634
2022-08-01T04:42:48.264Z,624
2022-08-01T04:43:57.441Z,659
2022-08-01T04:45:06.626Z,620
2022-08-01T04:46:15.787Z,712
2022-08-01T04:47:24.964Z,868
2022-08-01T04:48:34.121Z,870
2022-08-01T04:49:43.301Z,774
2022-08-01T04:50:52.482Z,808
2022-08-01T04:52:01.639Z,771
2022-08-01T04:53:10.822Z,760
2022-08-01T04:54:19.993Z,777
2022-08-01T04:55:29.164Z,883
2022-08-01T04:56:37.360Z,928
2022-08-01T04:57:46.553Z,956
2022-08-01T04:58:55.701Z,1026
2022-08-01T05:00:04.869Z,1118
2022-08-01T05:01:14.045Z,1308
2022-08-01T05:02:23.208Z,1311
2022-08-01T05:03:32.391Z,1206
2022-08-01T05:04:41.556Z,1082
2022-08-01T05:05:50.721Z,1059
2022-08-01T05:06:59.908Z,1029
2022-08-01T05:08:09.073Z,1187
2022-08-01T05:09:18.248Z,1070
2022-08-01T05:10:27.448Z,1231
2022-08-01T05:11:35.603Z,1166
2022-08-01T05:12:44.778Z,1168
2022-08-01T05:13:53.945Z,1278
2022-08-01T05:15:03.124Z,1055
2022-08-01T05:16:12.282Z,1001
2022-08-01T05:17:21.459Z,1005
2022-08-01T05:18:30.655Z,973
2022-08-01T05:19:39.818Z,815
2022-08-01T05:20:48.985Z,620
2022-08-01T05:21:58.155Z,803
2022-08-01T05:23:07.333Z,743
2022-08-01T05:24:16.506Z,800
2022-08-01T05:25:25.676Z,719
2022-08-01T05:26:33.856Z,649
2022-08-01T05:27:43.040Z,582
2022-08-01T05:28:52.212Z,610
2022-08-01T05:30:01.384Z,545
2022-08-01T05:31:10.556Z,775
2022-08-01T05:32:19.724Z,944
2022-08-01T05:33:28.900Z,992
2022-08-01T05:34:38.085Z,1070
2022-08-01T05:35:47.233Z,1244
2022-08-01T05:36:56.408Z,1396
2022-08-01T05:38:05.584Z,1540
2022-08-01T05:39:14.762Z,1456
2022-08-01T05:40:23.936Z,1434
2022-08-01T05:41:32.114Z,1359
2022-08-01T05:42:41.284Z,1336
2022-08-01T05:43:50.459Z,1243
2022-08-01T05:44:59.630Z,1024
2022-08-01T05:47:17.973Z,1269
2022-08-01T05:48:27.172Z,1417
2022-08-01T05:49:35.334Z,1528
2022-08-01T05:50:44.514Z,1726
2022-08-01T05:51:53.685Z,2027
2022-08-01T05:53:02.858Z,2156
2022-08-01T05:54:12.041Z,1819
2022-08-01T05:55:21.196Z,2220
2022-08-01T05:56:30.369Z,2285
2022-08-01T05:57:39.539Z,2641
2022-08-01T05:58:48.714Z,2840
2022-08-01T05:59:57.891Z,2779
2022-08-01T06:01:07.061Z,2641
2022-08-01T06:02:16.235Z,2674
2022-08-01T06:03:25.407Z,2472
2022-08-01T06:04:33.608Z,2659
2022-08-01T06:05:42.761Z,2637
2022-08-01T06:06:51.931Z,2567
2022-08-01T06:08:01.119Z,2162
2022-08-01T06:09:10.282Z,2131
2022-08-01T06:10:19.453Z,1905
2022-08-01T06:11:28.622Z,1710
2022-08-01T06:12:37.793Z,1515
2022-08-01T06:13:46.971Z,1725
2022-08-01T06:14:56.136Z,2034
2022-08-01T06:16:05.321Z,2366
2022-08-01T06:17:14.488Z,2165
2022-08-01T06:18:23.651Z,2090
2022-08-01T06:19:31.844Z,2217
2022-08-01T06:20:41.011Z,2057
2022-08-01T06:21:50.184Z,1919
2022-08-01T06:22:59.356Z,1652
2022-08-01T06:24:08.533Z,2193
2022-08-01T06:25:17.700Z,2249
2022-08-01T06:26:26.883Z,2454
2022-08-01T06:27:36.139Z,2332
2022-08-01T06:28:45.224Z,1820
2022-08-01T06:29:54.398Z,1754
2022-08-01T06:31:03.565Z,1604
2022-08-01T06:32:12.744Z,1334
2022-08-01T06:33:21.913Z,1194
2022-08-01T06:34:31.099Z,1199
2022-08-01T06:35:39.276Z,1139
2022-08-01T06:36:48.444Z,1124
2022-08-01T06:37:57.628Z,981
2022-08-01T06:39:06.810Z,772
2022-08-01T06:40:15.969Z,781
2022-08-01T06:41:25.131Z,907
2022-08-01T06:42:34.311Z,1017
2022-08-01T06:43:43.475Z,1116
2022-08-01T06:44:52.651Z,1289
2022-08-01T06:46:01.813Z,1506
2022-08-01T06:47:11.005Z,1427
2022-08-01T06:48:20.168Z,1436
2022-08-01T06:49:29.340Z,1466
2022-08-01T06:50:37.550Z,1586
2022-08-01T06:51:46.710Z,1586
2022-08-01T06:52:55.873Z,1676
2022-08-01T06:54:05.042Z,2180
2022-08-01T06:55:14.219Z,2923
2022-08-01T06:56:23.396Z,3285
2022-08-01T06:57:32.556Z,3706
2022-08-01T06:58:41.723Z,4220
2022-08-01T06:59:50.917Z,4341
2022-08-01T07:01:00.075Z,3741
2022-08-01T07:02:09.246Z,3619
2022-08-01T07:03:18.424Z,4112
2022-08-01T07:04:27.597Z,3590
2022-08-01T07:05:35.783Z,3596
2022-08-01T07:06:44.951Z,3639
2022-08-01T07:07:54.133Z,3003
2022-08-01T07:09:03.304Z,2552
2022-08-01T07:10:12.481Z,2980
2022-08-01T07:11:21.651Z,4037
2022-08-01T07:12:30.818Z,5175
2022-08-01T07:13:39.987Z,5390
2022-08-01T07:14:49.158Z,5180
2022-08-01T07:15:58.341Z,5216
2022-08-01T07:17:07.493Z,4861
2022-08-01T07:18:16.672Z,4399
2022-08-01T07:19:25.840Z,4044
2022-08-01T07:20:34.050Z,4212
2022-08-01T07:21:43.209Z,4914
2022-08-01T07:22:52.379Z,5245
2022-08-01T07:24:01.546Z,4898
2022-08-01T07:25:10.723Z,4119
2022-08-01T07:26:19.903Z,3222
2022-08-01T07:27:29.070Z,2315
2022-08-01T07:28:38.244Z,1564
2022-08-01T07:29:47.433Z,1109
2022-08-01T07:30:56.585Z,980
2022-08-01T07:32:05.755Z,947
2022-08-01T07:33:14.937Z,1032
2022-08-01T07:34:24.103Z,1554
2022-08-01T07:35:32.296Z,2206
2022-08-01T07:36:41.463Z,2283
2022-08-01T07:37:50.651Z,2740
2022-08-01T07:38:59.810Z,3329
2022-08-01T07:40:08.970Z,4200
2022-08-01T07:41:18.148Z,4384
2022-08-01T07:42:27.326Z,4037
2022-08-01T07:43:36.497Z,3747
2022-08-01T07:44:45.668Z,4339
2022-08-01T07:45:54.841Z,4822
2022-08-01T07:47:04.011Z,4639
2022-08-01T07:48:13.183Z,4435
2022-08-01T07:49:22.382Z,3356
2022-08-01T07:50:30.546Z,3199
2022-08-01T07:51:39.718Z,2888
2022-08-01T07:52:48.898Z,2902
2022-08-01T07:53:58.060Z,3213
2022-08-01T07:55:07.236Z,3613
2022-08-01T07:56:16.405Z,4115
2022-08-01T07:57:25.580Z,4638
2022-08-01T07:58:34.750Z,4866
2022-08-01T07:59:43.931Z,4857
2022-08-01T08:00:53.092Z,4889
2022-08-01T08:02:02.271Z,5317
2022-08-01T08:03:11.438Z,5662
2022-08-01T08:04:20.607Z,5851
2022-08-01T08:05:28.795Z,6962
2022-08-01T08:06:37.971Z,6716
2022-08-01T08:07:47.145Z,7278
2022-08-01T08:08:56.325Z,7323
2022-08-01T08:10:05.490Z,7588
2022-08-01T08:11:14.662Z,8295
2022-08-01T08:12:23.835Z,9642
2022-08-01T08:13:33.042Z,10288
2022-08-01T08:14:42.229Z,10443
2022-08-01T08:15:51.384Z,10620
2022-08-01T08:17:00.556Z,10652
2022-08-01T08:18:09.723Z,10657
2022-08-01T08:19:18.888Z,11480
2022-08-01T08:20:27.090Z,11758
2022-08-01T08:21:36.262Z,11587
2022-08-01T08:22:45.431Z,9995
2022-08-01T08:23:54.600Z,9629
2022-08-01T08:25:03.773Z,8734
2022-08-01T08:26:12.948Z,7165
2022-08-01T08:28:31.288Z,5444
2022-08-01T08:29:40.460Z,5624
2022-08-01T08:30:49.633Z,6052
2022-08-01T08:31:58.831Z,6427
2022-08-01T08:33:07.979Z,6388
2022-08-01T08:34:17.158Z,6842
2022-08-01T08:35:25.350Z,6752
2022-08-01T08:36:34.520Z,6781
2022-08-01T08:37:43.695Z,6745
2022-08-01T08:38:52.859Z,6576
2022-08-01T08:40:02.022Z,6229
2022-08-01T08:41:11.218Z,5333
2022-08-01T08:42:20.381Z,5620
2022-08-01T08:43:29.550Z,6779
2022-08-01T08:44:38.731Z,7211
2022-08-01T08:45:47.894Z,7845
2022-08-01T08:46:57.084Z,7371
2022-08-01T08:48:06.243Z,7483
2022-08-01T08:49:15.407Z,7568
2022-08-01T08:50:23.616Z,7849
2022-08-01T08:51:32.789Z,6447
2022-08-01T08:52:41.949Z,7667
2022-08-01T08:53:51.117Z,8639
2022-08-01T08:55:00.301Z,7611
2022-08-01T08:56:09.465Z,6364
2022-08-01T08:57:18.633Z,6807
2022-08-01T08:58:27.811Z,8650
2022-08-01T08:59:36.979Z,9159
2022-08-01T09:00:46.156Z,8795
2022-08-01T09:01:55.323Z,9209
2022-08-01T09:03:04.503Z,9946
2022-08-01T09:04:13.683Z,9940
2022-08-01T09:05:21.858Z,11247
2022-08-01T09:06:31.031Z,10861
2022-08-01T09:07:40.207Z,10944
2022-08-01T09:08:49.385Z,10730
2022-08-01T09:09:58.553Z,10292
2022-08-01T09:11:07.711Z,10148
2022-08-01T09:12:16.891Z,9741
2022-08-01T09:13:26.066Z,9249
2022-08-01T09:14:35.235Z,9906
2022-08-01T09:15:44.401Z,10491
2022-08-01T09:16:53.585Z,10775
2022-08-01T09:18:02.770Z,9167
2022-08-01T09:19:11.941Z,8979
2022-08-01T09:20:20.139Z,9712
2022-08-01T09:21:29.290Z,10113
2022-08-01T09:22:38.461Z,10085
2022-08-01T09:23:47.661Z,11043
2022-08-01T09:24:56.817Z,10405
2022-08-01T09:26:05.991Z,8657
2022-08-01T09:27:15.158Z,6775
2022-08-01T09:28:24.339Z,5221
2022-08-01T09:29:33.498Z,4911
2022-08-01T09:30:42.672Z,4937
2022-08-01T09:31:51.845Z,5286
2022-08-01T09:33:01.020Z,5971
2022-08-01T09:34:10.215Z,7916
2022-08-01T09:35:18.400Z,7960
2022-08-01T09:36:27.602Z,6959
2022-08-01T09:37:36.723Z,5992
2022-08-01T09:38:45.888Z,6440
2022-08-01T09:39:55.063Z,5707
2022-08-01T09:41:03.261Z,5175
2022-08-01T09:42:12.436Z,5402
2022-08-01T09:43:21.603Z,5686
2022-08-01T09:44:30.777Z,6465
2022-08-01T09:45:39.954Z,7599
2022-08-01T09:46:49.129Z,7909
2022-08-01T09:47:58.302Z,6618
2022-08-01T09:49:07.472Z,6431
2022-08-01T09:50:16.632Z,7668
2022-08-01T09:51:25.817Z,8098
2022-08-01T09:52:34.031Z,9032
2022-08-01T09:53:42.195Z,9428
2022-08-01T09:54:51.370Z,8754
2022-08-01T09:56:00.541Z,9622
2022-08-01T09:57:09.715Z,8609
2022-08-01T09:58:18.885Z,5916
2022-08-01T09:59:28.063Z,3653
2022-08-01T10:00:37.230Z,3111
2022-08-01T10:01:46.405Z,3445
2022-08-01T10:02:55.571Z,4851
2022-08-01T10:04:03.779Z,4994
2022-08-01T10:05:11.972Z,5390
2022-08-01T10:06:21.134Z,5841
2022-08-01T10:07:30.309Z,5858
2022-08-01T10:08:39.480Z,5948
2022-08-01T10:09:48.675Z,6240
2022-08-01T10:10:57.851Z,6795
2022-08-01T10:12:07.028Z,7504
2022-08-01T10:13:16.167Z,7172
2022-08-01T10:14:25.368Z,7148
2022-08-01T10:15:34.515Z,7678
2022-08-01T10:16:43.680Z,7598
2022-08-01T10:17:52.879Z,7685
2022-08-01T10:19:02.020Z,8295
2022-08-01T10:20:10.224Z,9425
2022-08-01T10:21:19.411Z,10546
2022-08-01T10:22:28.576Z,10579
2022-08-01T10:23:37.736Z,11356
2022-08-01T10:24:46.953Z,12239
2022-08-01T10:25:56.082Z,12692
2022-08-01T10:27:05.249Z,13101
2022-08-01T10:28:14.417Z,13371
2022-08-01T10:29:23.616Z,13263
2022-08-01T10:30:32.785Z,13046
2022-08-01T10:31:41.940Z,12576
2022-08-01T10:32:51.141Z,12171
2022-08-01T10:34:00.276Z,11886
2022-08-01T10:36:17.669Z,11621
2022-08-01T10:37:26.821Z,10991
2022-08-01T10:38:35.992Z,10902
2022-08-01T10:39:45.188Z,10027
2022-08-01T10:40:54.341Z,8643
2022-08-01T10:42:03.516Z,7398
2022-08-01T10:43:12.715Z,8966
2022-08-01T10:44:21.864Z,8764
2022-08-01T10:45:31.060Z,8957
2022-08-01T10:46:40.195Z,7534
2022-08-01T10:47:49.371Z,6072
2022-08-01T10:50:07.704Z,6775
2022-08-01T10:51:15.899Z,6709
2022-08-01T10:52:25.077Z,6688
2022-08-01T10:53:34.264Z,7164
2022-08-01T10:54:43.410Z,8848
2022-08-01T10:55:52.623Z,10355
2022-08-01T10:57:01.762Z,11668
2022-08-01T10:58:10.948Z,12552
2022-08-01T10:59:20.111Z,13243
2022-08-01T11:00:29.327Z,13247
2022-08-01T11:01:38.464Z,12956
2022-08-01T11:02:47.626Z,13104
2022-08-01T11:03:56.822Z,12778
2022-08-01T11:05:06.013Z,12056
2022-08-01T11:06:14.177Z,11068
2022-08-01T11:07:23.349Z,10031
2022-08-01T11:08:32.489Z,9363
2022-08-01T11:09:41.686Z,8983
2022-08-01T11:10:50.854Z,9256
2022-08-01T11:12:00.043Z,9074
2022-08-01T11:13:09.203Z,8706
2022-08-01T11:14:18.378Z,7944
2022-08-01T11:15:27.540Z,8207
2022-08-01T11:16:36.712Z,8928
2022-08-01T11:17:45.916Z,9329
2022-08-01T11:18:55.080Z,9748
2022-08-01T11:20:04.238Z,10136
2022-08-01T11:22:21.611Z,10161
2022-08-01T11:23:30.806Z,9401
2022-08-01T11:24:39.958Z,9001
2022-08-01T11:25:49.102Z,8193
2022-08-01T11:26:58.290Z,8449
2022-08-01T11:28:07.498Z,8645
2022-08-01T11:29:16.638Z,8317
2022-08-01T11:30:25.819Z,7236
2022-08-01T11:31:34.986Z,5900
2022-08-01T11:32:44.166Z,5725
2022-08-01T11:33:53.326Z,5761
2022-08-01T11:35:02.548Z,5171
2022-08-01T11:36:10.680Z,6334
2022-08-01T11:37:19.861Z,6414
2022-08-01T11:38:29.023Z,5935
2022-08-01T11:39:38.228Z,5155
2022-08-01T11:40:47.366Z,3675
2022-08-01T11:41:56.548Z,2958
2022-08-01T11:43:05.754Z,3200
2022-08-01T11:44:14.932Z,3850
2022-08-01T11:45:24.099Z,4610
2022-08-01T11:46:33.282Z,5274
2022-08-01T11:47:42.449Z,5895
2022-08-01T11:48:51.616Z,6337
2022-08-01T11:50:00.796Z,6648
2022-08-01T11:51:08.947Z,7197
2022-08-01T11:52:18.125Z,8000
2022-08-01T11:53:27.302Z,8232
2022-08-01T11:54:36.487Z,7324
2022-08-01T11:55:45.626Z,6974
2022-08-01T11:56:54.808Z,7141
2022-08-01T11:58:03.981Z,7956
2022-08-01T11:59:13.153Z,7095
2022-08-01T12:00:22.317Z,7023
2022-08-01T12:01:31.523Z,7170
2022-08-01T12:02:40.672Z,7596
2022-08-01T12:03:49.861Z,6937
2022-08-01T12:04:59.010Z,5459
2022-08-01T12:06:08.183Z,5015
2022-08-01T12:07:16.377Z,5258
2022-08-01T12:08:25.545Z,5092
2022-08-01T12:09:34.720Z,4786
2022-08-01T12:10:43.887Z,4663
2022-08-01T12:11:53.064Z,4727
2022-08-01T12:13:02.233Z,5350
2022-08-01T12:14:11.404Z,5801
2022-08-01T12:15:20.581Z,6442
2022-08-01T12:16:29.743Z,7556
2022-08-01T12:17:38.913Z,8318
2022-08-01T12:19:57.282Z,8306
2022-08-01T12:21:06.428Z,8136
2022-08-01T12:22:14.634Z,7845
2022-08-01T12:23:23.804Z,7688
2022-08-01T12:24:32.987Z,7222
2022-08-01T12:25:42.145Z,7010
2022-08-01T12:26:51.320Z,7700
2022-08-01T12:28:00.497Z,7678
2022-08-01T12:29:09.654Z,7744
2022-08-01T12:30:18.840Z,8160
2022-08-01T12:31:28.012Z,7859
2022-08-01T12:32:37.181Z,7301
2022-08-01T12:33:46.369Z,7057
2022-08-01T12:34:55.531Z,6732
2022-08-01T12:36:04.689Z,6222
2022-08-01T12:37:12.889Z,6523
2022-08-01T12:38:22.067Z,7412
2022-08-01T12:39:31.230Z,8632
2022-08-01T12:40:40.395Z,9678
2022-08-01T12:41:49.576Z,11259
2022-08-01T12:42:58.753Z,12326
2022-08-01T12:44:07.923Z,12447
2022-08-01T12:45:17.086Z,12905
2022-08-01T12:46:26.277Z,14279
2022-08-01T12:47:35.435Z,14730
2022-08-01T12:48:44.603Z,15842
2022-08-01T12:49:53.787Z,17540
2022-08-01T12:51:02.944Z,18330
2022-08-01T12:52:12.119Z,17768
2022-08-01T12:53:20.305Z,18156
2022-08-01T12:54:29.493Z,18357
2022-08-01T12:55:38.670Z,21701
2022-08-01T12:57:57.015Z,16212
2022-08-01T12:59:06.180Z,14494
2022-08-01T13:00:15.364Z,13703
2022-08-01T13:01:24.526Z,13331
2022-08-01T13:02:33.704Z,12976
2022-08-01T13:03:42.886Z,12398
2022-08-01T13:04:52.045Z,12196
2022-08-01T13:06:01.220Z,12330
2022-08-01T13:07:10.387Z,12713
2022-08-01T13:08:18.575Z,12899
2022-08-01T13:09:27.737Z,12909
2022-08-01T13:10:36.924Z,13168
2022-08-01T13:11:46.095Z,13365
2022-08-01T13:12:55.262Z,13446
2022-08-01T13:14:04.450Z,13663
2022-08-01T13:15:13.640Z,13584
2022-08-01T13:16:22.779Z,13504
2022-08-01T13:17:31.949Z,13823
2022-08-01T13:18:41.144Z,14241
2022-08-01T13:19:50.303Z,14325
2022-08-01T13:20:58.495Z,14828
2022-08-01T13:22:06.676Z,15507
2022-08-01T13:23:15.848Z,15909
2022-08-01T13:24:25.017Z,15934
2022-08-01T13:25:33.222Z,15507
2022-08-01T13:26:41.411Z,17485
2022-08-01T13:27:50.563Z,16600
2022-08-01T13:28:59.757Z,16870
2022-08-01T13:30:08.929Z,17262
2022-08-01T13:32:27.261Z,17705
2022-08-01T13:33:35.455Z,19309
2022-08-01T13:34:44.632Z,19374
2022-08-01T13:35:53.805Z,20454
2022-08-01T13:37:02.978Z,21151
2022-08-01T13:38:12.149Z,20830
2022-08-01T13:39:21.331Z,17737
2022-08-01T13:40:30.491Z,15068
2022-08-01T13:41:39.671Z,14213
2022-08-01T13:42:48.836Z,15177
2022-08-01T13:43:58.007Z,15800
2022-08-01T13:45:07.199Z,12257
2022-08-01T13:46:16.359Z,39788
2022-08-01T13:47:25.548Z,21469
2022-08-01T13:48:33.732Z,25800
2022-08-01T13:49:42.901Z,22400
2022-08-01T13:50:52.065Z,17898
2022-08-01T13:52:01.275Z,15474
2022-08-01T13:53:10.411Z,14053
2022-08-01T13:54:19.574Z,13622
2022-08-01T13:55:28.752Z,13436
2022-08-01T13:56:37.927Z,14430
2022-08-01T13:57:47.095Z,16163
2022-08-01T13:58:56.276Z,10085
2022-08-01T14:00:05.440Z,26605
2022-08-01T14:01:14.610Z,46649
2022-08-01T14:02:23.809Z,33890
2022-08-01T14:04:41.182Z,35729
2022-08-01T14:05:50.350Z,17818
2022-08-01T14:06:59.567Z,34675
2022-08-01T14:08:08.702Z,45568
2022-08-01T14:09:17.887Z,7892
2022-08-01T14:10:27.054Z,60346
2022-08-01T14:11:36.214Z,47673
2022-08-01T14:13:54.597Z,11409
2022-08-01T14:15:03.776Z,8882
2022-08-01T14:16:12.910Z,9219
2022-08-01T14:17:22.112Z,4685
2022-08-01T14:18:30.267Z,24855
2022-08-01T14:19:39.440Z,11590
2022-08-01T14:20:48.615Z,10237
2022-08-01T14:21:57.781Z,7418
2022-08-01T14:23:06.954Z,24347
2022-08-01T14:24:16.128Z,12702
2022-08-01T14:25:25.300Z,11096
2022-08-01T14:26:34.467Z,59732
2022-08-01T14:27:43.641Z,2255
2022-08-01T14:28:52.812Z,14668
2022-08-01T14:30:01.990Z,12781
2022-08-01T14:31:11.163Z,473
2022-08-01T14:32:20.331Z,2075
2022-08-01T14:33:29.511Z,4100
2022-08-01T14:34:37.695Z,50287
2022-08-01T14:35:46.865Z,29796
2022-08-01T14:36:56.048Z,29220
2022-08-01T14:38:05.207Z,51950
2022-08-01T14:39:14.389Z,51406
2022-08-01T14:40:23.562Z,27800
2022-08-01T14:41:32.732Z,28830
2022-08-01T14:42:41.905Z,23061
2022-08-01T14:43:51.068Z,20047
2022-08-01T14:45:00.249Z,16821
2022-08-01T14:46:09.434Z,13613
2022-08-01T14:47:18.600Z,13175
2022-08-01T14:48:27.761Z,27558
2022-08-01T14:49:35.944Z,27124
2022-08-01T14:50:45.131Z,19354
2022-08-01T14:51:54.318Z,14477
2022-08-01T14:53:03.472Z,24277
2022-08-01T14:54:12.640Z,18518
2022-08-01T14:55:21.855Z,550
2022-08-01T14:56:30.996Z,16713
2022-08-01T14:57:40.163Z,25580
2022-08-01T14:58:49.330Z,34994
2022-08-01T14:59:58.512Z,6043
2022-08-01T15:01:07.687Z,53544
2022-08-01T15:02:16.855Z,21221
2022-08-01T15:03:26.044Z,13854
2022-08-01T15:04:34.212Z,11243
2022-08-01T15:05:43.380Z,13174
2022-08-01T15:06:52.565Z,19571
2022-08-01T15:08:01.740Z,12734
2022-08-01T15:09:10.908Z,16454
2022-08-01T15:10:20.085Z,13226
2022-08-01T15:11:29.246Z,13934
2022-08-01T15:12:38.427Z,12131
2022-08-01T15:13:47.602Z,10048
2022-08-01T15:14:56.762Z,9578
2022-08-01T15:16:05.939Z,8610
2022-08-01T15:17:15.108Z,8465
2022-08-01T15:18:24.282Z,8133
2022-08-01T15:19:32.469Z,7489
2022-08-01T15:20:41.648Z,7541
2022-08-01T15:21:50.817Z,8124
2022-08-01T15:22:59.995Z,8632
2022-08-01T15:24:09.162Z,7615
2022-08-01T15:25:17.356Z,6579
2022-08-01T15:26:25.539Z,14361
2022-08-01T15:27:34.718Z,31681
2022-08-01T15:28:43.885Z,32988
2022-08-01T15:29:53.062Z,34001
2022-08-01T15:31:02.237Z,32318
2022-08-01T15:32:11.397Z,24646
2022-08-01T15:33:19.605Z,64737
2022-08-01T15:34:27.807Z,17465
2022-08-01T15:35:36.962Z,63708
2022-08-01T15:36:46.138Z,14754
2022-08-01T15:37:55.311Z,33848
2022-08-01T15:39:04.479Z,55813
2022-08-01T15:40:13.656Z,11833
2022-08-01T15:41:22.826Z,28690
2022-08-01T15:42:31.994Z,55812
2022-08-01T15:43:41.187Z,9144
2022-08-01T15:44:50.335Z,58615
2022-08-01T15:45:59.518Z,30728
2022-08-01T15:47:08.685Z,40368
2022-08-01T15:48:17.848Z,36541
2022-08-01T15:49:26.047Z,19103
2022-08-01T15:50:35.220Z,43438
2022-08-01T15:51:44.385Z,14994
2022-08-01T15:52:53.568Z,34486